createdAt,value
2023-02-12T00:01:12.630Z,1.60
2023-02-12T00:03:40.453Z,1.80
2023-02-12T00:06:08.565Z,0.70
2023-02-12T00:08:36.207Z,1.00
2023-02-12T00:11:15.652Z,1.10
2023-02-12T00:13:43.103Z,1.10
2023-02-12T00:18:41.723Z,1.00
2023-02-12T00:21:09.058Z,1.00
2023-02-12T00:23:36.834Z,1.00
2023-02-12T00:26:08.609Z,1.00
2023-02-12T00:28:35.823Z,1.00
2023-02-12T00:31:08.069Z,1.00
2023-02-12T00:33:35.098Z,1.10
2023-02-12T00:36:02.223Z,1.10
2023-02-12T00:38:28.956Z,1.80
2023-02-12T00:40:55.734Z,1.10
2023-02-12T00:43:22.445Z,1.10
2023-02-12T00:45:49.180Z,1.00
2023-02-12T00:48:16.475Z,0.80
2023-02-12T00:50:47.605Z,1.10
2023-02-12T00:53:14.902Z,0.70
2023-02-12T00:55:41.887Z,0.50
2023-02-12T00:58:09.248Z,0.50
2023-02-12T01:00:36.222Z,0.40
2023-02-12T01:03:04.150Z,0.40
2023-02-12T01:05:31.086Z,0.50
2023-02-12T01:07:57.922Z,0.40
2023-02-12T01:10:24.865Z,0.10
2023-02-12T01:12:51.751Z,0.40
2023-02-12T01:15:19.184Z,0.30
2023-02-12T01:17:46.140Z,0.20
2023-02-12T01:22:44.319Z,0.00
2023-02-12T01:25:12.009Z,0.00
2023-02-12T01:27:38.999Z,0.00
2023-02-12T01:30:07.432Z,-0.10
2023-02-12T01:32:34.634Z,-0.10
2023-02-12T01:35:01.406Z,-0.10
2023-02-12T01:37:28.125Z,-0.20
2023-02-12T01:39:54.780Z,-0.20
2023-02-12T01:42:21.574Z,0.00
2023-02-12T01:45:13.252Z,-0.30
2023-02-12T01:47:41.836Z,-0.10
2023-02-12T01:50:11.641Z,0.20
2023-02-12T01:52:41.567Z,-0.10
2023-02-12T01:55:10.911Z,-0.20
2023-02-12T01:57:42.191Z,-0.30
2023-02-12T02:00:18.137Z,-0.30
2023-02-12T02:02:53.845Z,-0.30
2023-02-12T02:05:33.396Z,-0.60
2023-02-12T02:08:00.146Z,-0.60
2023-02-12T02:10:26.848Z,-0.60
2023-02-12T02:13:12.060Z,-0.30
2023-02-12T02:15:41.890Z,-0.60
2023-02-12T02:18:17.210Z,-0.50
2023-02-12T02:21:01.928Z,-0.50
2023-02-12T02:24:03.340Z,-0.50
2023-02-12T02:27:06.714Z,-0.40
2023-02-12T02:29:56.862Z,-0.30
2023-02-12T02:32:27.103Z,-0.20
2023-02-12T02:35:08.001Z,-0.20
2023-02-12T02:37:50.686Z,-0.20
2023-02-12T02:40:20.500Z,-0.30
2023-02-12T02:43:03.074Z,-0.40
2023-02-12T02:45:43.736Z,-0.20
2023-02-12T02:48:29.401Z,-0.10
2023-02-12T02:51:02.671Z,0.20
2023-02-12T02:53:38.707Z,0.40
2023-02-12T02:56:08.623Z,0.00
2023-02-12T02:58:41.083Z,0.10
2023-02-12T03:01:13.644Z,-0.10
2023-02-12T03:03:54.974Z,-0.10
2023-02-12T03:06:27.494Z,-0.10
2023-02-12T03:09:00.570Z,0.00
2023-02-12T03:11:33.521Z,0.50
2023-02-12T03:14:07.763Z,0.20
2023-02-12T03:16:40.935Z,0.30
2023-02-12T03:19:16.864Z,0.40
2023-02-12T03:21:51.950Z,0.30
2023-02-12T03:24:36.825Z,0.30
2023-02-12T03:27:25.413Z,0.40
2023-02-12T03:29:52.574Z,0.30
2023-02-12T03:33:03.995Z,1.10
2023-02-12T03:35:35.722Z,0.30
2023-02-12T03:38:33.900Z,0.50
2023-02-12T03:41:23.286Z,0.50
2023-02-12T03:44:00.042Z,0.40
2023-02-12T03:46:39.185Z,0.50
2023-02-12T03:49:31.479Z,0.90
2023-02-12T03:51:58.954Z,0.50
2023-02-12T03:54:26.529Z,0.60
2023-02-12T03:56:56.348Z,0.50
2023-02-12T03:59:24.717Z,0.40
2023-02-12T04:01:57.657Z,0.50
2023-02-12T04:04:25.766Z,0.50
2023-02-12T04:06:53.910Z,1.10
2023-02-12T04:09:22.842Z,0.70
2023-02-12T04:12:17.546Z,0.80
2023-02-12T04:15:22.245Z,0.70
2023-02-12T04:17:51.378Z,0.70
2023-02-12T04:20:25.414Z,0.70
2023-02-12T04:23:03.197Z,0.80
2023-02-12T04:25:51.577Z,0.90
2023-02-12T04:28:27.525Z,0.90
2023-02-12T04:31:00.007Z,0.90
2023-02-12T04:33:32.960Z,1.40
2023-02-12T04:36:15.529Z,0.90
2023-02-12T04:38:50.754Z,0.90
2023-02-12T04:41:17.556Z,1.70
2023-02-12T04:43:44.301Z,1.10
2023-02-12T04:46:11.159Z,1.70
2023-02-12T04:48:53.034Z,1.10
2023-02-12T04:51:20.322Z,1.10
2023-02-12T04:53:47.448Z,1.40
2023-02-12T04:56:14.309Z,1.20
2023-02-12T04:58:41.945Z,1.20
2023-02-12T05:01:10.274Z,1.50
2023-02-12T05:03:37.483Z,1.30
2023-02-12T05:06:06.542Z,1.60
2023-02-12T05:08:33.341Z,1.30
2023-02-12T05:11:05.543Z,1.60
2023-02-12T05:13:32.673Z,1.30
2023-02-12T05:15:59.501Z,1.70
2023-02-12T05:18:26.400Z,1.40
2023-02-12T05:21:00.705Z,1.40
2023-02-12T05:23:29.281Z,1.40
2023-02-12T05:25:59.076Z,1.30
2023-02-12T05:28:26.865Z,1.50
2023-02-12T05:30:53.928Z,1.30
2023-02-12T05:33:20.783Z,1.40
2023-02-12T05:35:47.540Z,1.50
2023-02-12T05:38:14.283Z,1.50
2023-02-12T05:40:43.126Z,1.40
2023-02-12T05:43:10.357Z,1.30
2023-02-12T05:45:38.111Z,1.50
2023-02-12T05:48:04.881Z,1.50
2023-02-12T05:50:31.631Z,1.30
2023-02-12T05:53:02.754Z,1.10
2023-02-12T05:55:29.466Z,1.40
2023-02-12T05:57:56.204Z,1.30
2023-02-12T06:00:23.198Z,1.30
2023-02-12T06:02:49.961Z,1.50
2023-02-12T06:05:16.869Z,1.40
2023-02-12T06:07:43.591Z,1.50
2023-02-12T06:10:10.687Z,1.30
2023-02-12T06:12:37.435Z,1.50
2023-02-12T06:15:04.348Z,1.40
2023-02-12T06:17:31.063Z,1.40
2023-02-12T06:19:57.769Z,1.50
2023-02-12T06:22:24.506Z,2.00
2023-02-12T06:24:51.260Z,1.40
2023-02-12T06:27:18.023Z,1.40
2023-02-12T06:29:44.798Z,1.40
2023-02-12T06:32:13.655Z,1.40
2023-02-12T06:34:40.606Z,2.00
2023-02-12T06:37:07.412Z,1.40
2023-02-12T06:39:34.205Z,2.10
2023-02-12T06:42:01.644Z,2.00
2023-02-12T06:44:28.384Z,1.30
2023-02-12T06:46:55.197Z,1.50
2023-02-12T06:49:21.999Z,1.30
2023-02-12T06:51:48.721Z,1.50
2023-02-12T06:54:18.216Z,1.60
2023-02-12T06:56:45.106Z,1.90
2023-02-12T06:59:16.591Z,1.60
2023-02-12T07:01:43.763Z,1.60
2023-02-12T07:04:11.023Z,1.40
2023-02-12T07:06:37.828Z,1.30
2023-02-12T07:09:05.719Z,1.60
2023-02-12T07:11:37.584Z,1.70
2023-02-12T07:14:05.766Z,1.70
2023-02-12T07:16:32.591Z,2.30
2023-02-12T07:18:59.393Z,1.60
2023-02-12T07:21:26.176Z,1.70
2023-02-12T07:24:05.103Z,1.70
2023-02-12T07:26:32.061Z,1.30
2023-02-12T07:29:01.395Z,2.60
2023-02-12T07:31:28.545Z,1.80
2023-02-12T07:34:01.273Z,1.60
2023-02-12T07:37:10.921Z,2.60
2023-02-12T07:46:18.405Z,2.00
2023-02-12T07:48:48.928Z,3.20
2023-02-12T07:51:19.359Z,1.80
2023-02-12T07:53:47.059Z,1.60
2023-02-12T07:56:18.374Z,1.90
2023-02-12T07:58:47.006Z,2.20
2023-02-12T08:01:18.145Z,1.70
2023-02-12T08:03:46.275Z,2.30
2023-02-12T08:06:23.570Z,3.10
2023-02-12T08:09:00.055Z,1.90
2023-02-12T08:11:39.501Z,2.40
2023-02-12T08:14:06.884Z,2.90
2023-02-12T08:16:38.274Z,2.70
2023-02-12T08:19:16.879Z,2.70
2023-02-12T08:21:44.988Z,2.30
2023-02-12T08:24:22.817Z,3.90
2023-02-12T08:26:53.456Z,3.40
2023-02-12T08:29:24.213Z,3.20
2023-02-12T08:31:57.174Z,3.80
2023-02-12T08:34:37.279Z,3.00
2023-02-12T08:37:14.405Z,3.00
2023-02-12T08:39:43.797Z,3.10
2023-02-12T08:42:10.718Z,3.10
2023-02-12T08:44:42.956Z,3.10
2023-02-12T08:47:13.097Z,3.30
2023-02-12T08:49:44.634Z,3.80
2023-02-12T08:52:23.128Z,3.60
2023-02-12T08:54:56.412Z,3.80
2023-02-12T08:57:44.105Z,4.30
2023-02-12T09:00:14.611Z,3.70
2023-02-12T09:02:41.677Z,3.90
2023-02-12T09:05:11.026Z,3.80
2023-02-12T09:07:49.570Z,4.70
2023-02-12T09:10:45.480Z,4.30
2023-02-12T09:13:23.588Z,4.20
2023-02-12T09:15:52.756Z,4.20
2023-02-12T09:18:31.892Z,4.80
2023-02-12T09:21:07.955Z,5.00
2023-02-12T09:23:38.339Z,4.50
2023-02-12T09:26:07.503Z,4.50
2023-02-12T09:29:04.141Z,4.80
2023-02-12T09:31:33.839Z,5.20
2023-02-12T09:34:08.276Z,5.10
2023-02-12T09:36:38.302Z,5.80
2023-02-12T09:39:05.734Z,5.20
2023-02-12T09:42:11.234Z,5.20
2023-02-12T09:45:13.423Z,5.60
2023-02-12T09:48:00.837Z,5.80
2023-02-12T09:50:48.824Z,6.20
2023-02-12T09:53:19.504Z,5.70
2023-02-12T09:55:46.496Z,5.60
2023-02-12T09:58:41.755Z,5.20
2023-02-12T10:01:17.444Z,5.80
2023-02-12T10:03:46.352Z,5.50
2023-02-12T10:06:29.129Z,6.40
2023-02-12T10:09:18.484Z,5.60
2023-02-12T10:12:00.724Z,5.60
2023-02-12T10:14:57.853Z,5.70
2023-02-12T10:17:42.313Z,5.80
2023-02-12T10:20:41.715Z,6.00
2023-02-12T10:23:08.934Z,5.40
2023-02-12T10:25:58.981Z,6.00
2023-02-12T10:28:39.018Z,6.10
2023-02-12T10:31:33.937Z,5.90
2023-02-12T10:34:00.879Z,7.60
2023-02-12T10:36:53.980Z,6.40
2023-02-12T10:40:14.676Z,6.50
2023-02-12T10:42:51.875Z,6.40
2023-02-12T10:45:22.498Z,7.10
2023-02-12T13:53:26.959Z,7.90
2023-02-12T13:59:41.422Z,8.70
2023-02-12T14:06:45.572Z,7.10
2023-02-12T14:21:08.895Z,9.10
2023-02-12T14:23:52.604Z,7.50
2023-02-12T14:26:55.281Z,7.30
2023-02-12T14:33:47.723Z,7.30
2023-02-12T14:51:54.521Z,7.10
2023-02-12T15:04:48.305Z,7.30
2023-02-12T15:26:24.907Z,8.50
2023-02-12T15:32:28.743Z,6.90
2023-02-12T15:54:55.302Z,7.40
2023-02-12T16:22:59.110Z,6.70
2023-02-12T16:25:44.055Z,5.40
2023-02-12T16:28:32.094Z,6.20
2023-02-12T16:31:18.288Z,5.50
2023-02-12T16:34:26.814Z,6.60
2023-02-12T16:40:26.969Z,6.10
2023-02-12T16:43:26.683Z,6.50
2023-02-12T16:46:16.939Z,6.00
2023-02-12T16:49:01.207Z,6.00
2023-02-12T16:59:05.043Z,5.30
2023-02-12T17:01:36.022Z,6.70
2023-02-12T18:22:38.012Z,2.90
2023-02-12T18:25:30.652Z,2.20
2023-02-12T18:46:49.727Z,2.40
2023-02-12T18:49:30.265Z,1.80
2023-02-12T18:52:25.701Z,1.90
2023-02-12T18:55:29.390Z,3.10
2023-02-12T22:31:35.695Z,0.80
2023-02-12T23:47:39.559Z,1.90
